createdAt,value
2023-04-08T00:01:00.068Z,18.08
2023-04-08T00:03:29.054Z,21.60
2023-04-08T00:05:57.439Z,20.52
2023-04-08T00:08:25.984Z,19.20
2023-04-08T00:10:54.188Z,16.65
2023-04-08T00:13:24.131Z,19.38
2023-04-08T00:15:52.287Z,18.85
2023-04-08T00:18:20.952Z,20.50
2023-04-08T00:20:49.118Z,19.50
2023-04-08T00:23:18.266Z,22.10
2023-04-08T00:25:46.681Z,21.67
2023-04-08T00:28:15.617Z,22.80
2023-04-08T00:30:45.173Z,21.42
2023-04-08T00:33:13.749Z,22.75
2023-04-08T00:35:42.103Z,21.77
2023-04-08T00:38:10.985Z,24.75
2023-04-08T00:40:39.121Z,24.23
2023-04-08T00:43:07.709Z,22.20
2023-04-08T00:45:35.983Z,24.83
2023-04-08T00:48:06.785Z,21.83
2023-04-08T00:50:35.087Z,20.58
2023-04-08T00:53:03.597Z,22.27
2023-04-08T00:55:31.976Z,21.83
2023-04-08T00:58:00.488Z,14.82
2023-04-08T01:00:29.681Z,18.38
2023-04-08T01:03:07.363Z,18.98
2023-04-08T01:05:41.663Z,16.55
2023-04-08T01:08:11.896Z,15.10
2023-04-08T01:10:43.017Z,14.93
2023-04-08T01:13:13.715Z,18.15
2023-04-08T01:15:44.139Z,13.93
2023-04-08T01:18:15.735Z,11.07
2023-04-08T01:20:44.473Z,13.20
2023-04-08T01:23:17.703Z,15.35
2023-04-08T01:25:49.245Z,13.68
2023-04-08T01:28:19.291Z,14.63
2023-04-08T01:30:48.067Z,15.05
2023-04-08T01:33:18.888Z,14.75
2023-04-08T01:35:47.637Z,15.80
2023-04-08T01:38:18.520Z,17.42
2023-04-08T01:40:49.720Z,17.20
2023-04-08T01:43:19.328Z,17.05
2023-04-08T01:45:48.770Z,19.13
2023-04-08T01:48:17.470Z,17.98
2023-04-08T01:50:46.547Z,19.90
2023-04-08T01:53:15.637Z,20.38
2023-04-08T01:55:44.383Z,19.65
2023-04-08T01:58:19.679Z,19.75
2023-04-08T02:00:48.146Z,18.52
2023-04-08T02:03:19.276Z,17.90
2023-04-08T02:05:47.687Z,17.88
2023-04-08T02:08:16.546Z,18.15
2023-04-08T02:10:44.674Z,21.23
2023-04-08T02:13:14.578Z,18.67
2023-04-08T02:15:48.585Z,18.70
2023-04-08T02:18:18.599Z,18.13
2023-04-08T02:20:55.667Z,19.10
2023-04-08T02:23:26.400Z,19.42
2023-04-08T02:25:55.855Z,18.92
2023-04-08T02:28:27.621Z,22.08
2023-04-08T02:30:56.173Z,19.35
2023-04-08T02:33:24.788Z,19.65
2023-04-08T02:35:56.210Z,19.15
2023-04-08T02:38:27.660Z,20.67
2023-04-08T02:40:55.920Z,22.00
2023-04-08T02:43:29.918Z,21.48
2023-04-08T02:45:58.392Z,20.48
2023-04-08T02:48:26.867Z,20.17
2023-04-08T02:50:55.168Z,20.83
2023-04-08T02:53:23.859Z,20.85
2023-04-08T02:55:52.315Z,20.30
2023-04-08T02:58:22.198Z,20.20
2023-04-08T03:00:51.877Z,23.00
2023-04-08T03:03:20.381Z,22.65
2023-04-08T03:05:48.628Z,21.02
2023-04-08T03:08:17.263Z,20.05
2023-04-08T03:10:45.751Z,20.80
2023-04-08T03:13:14.258Z,21.70
2023-04-08T03:15:42.571Z,22.85
2023-04-08T03:18:12.708Z,22.95
2023-04-08T03:20:40.828Z,23.88
2023-04-08T03:23:09.370Z,24.38
2023-04-08T03:25:37.530Z,25.45
2023-04-08T03:28:06.267Z,24.88
2023-04-08T03:30:34.861Z,25.70
2023-04-08T03:33:07.373Z,25.55
2023-04-08T03:35:37.784Z,24.63
2023-04-08T03:38:06.337Z,26.98
2023-04-08T03:40:34.744Z,23.42
2023-04-08T03:43:03.383Z,26.45
2023-04-08T03:45:31.705Z,24.75
2023-04-08T03:48:00.293Z,25.00
2023-04-08T03:50:28.522Z,25.75
2023-04-08T03:52:58.371Z,24.70
2023-04-08T03:55:26.666Z,23.42
2023-04-08T03:57:55.194Z,21.33
2023-04-08T04:00:23.420Z,21.38
2023-04-08T04:02:52.107Z,22.95
2023-04-08T04:05:20.642Z,18.13
2023-04-08T04:07:49.275Z,20.77
2023-04-08T04:10:18.995Z,22.30
2023-04-08T04:12:47.849Z,23.88
2023-04-08T04:15:16.219Z,22.48
2023-04-08T04:17:44.731Z,23.17
2023-04-08T04:20:13.762Z,17.95
2023-04-08T04:22:42.385Z,19.23
2023-04-08T04:25:11.261Z,19.02
2023-04-08T04:27:41.094Z,19.50
2023-04-08T04:30:10.653Z,24.67
2023-04-08T04:32:39.306Z,20.50
2023-04-08T04:35:07.943Z,19.63
2023-04-08T04:37:36.582Z,22.15
2023-04-08T04:40:05.195Z,21.83
2023-04-08T04:42:34.041Z,21.13
2023-04-08T04:45:04.349Z,18.48
2023-04-08T04:47:33.172Z,19.92
2023-04-08T04:50:01.486Z,19.27
2023-04-08T04:52:30.002Z,18.15
2023-04-08T04:54:58.951Z,18.02
2023-04-08T04:57:27.502Z,19.60
2023-04-08T04:59:55.728Z,17.75
2023-04-08T05:02:25.676Z,18.42
2023-04-08T05:04:55.824Z,19.92
2023-04-08T05:07:24.591Z,18.30
2023-04-08T05:09:52.776Z,16.52
2023-04-08T05:12:22.027Z,16.50
2023-04-08T05:14:50.397Z,17.77
2023-04-08T05:17:18.923Z,19.15
2023-04-08T05:19:48.552Z,18.23
2023-04-08T05:22:17.196Z,16.08
2023-04-08T05:24:45.498Z,17.55
2023-04-08T05:27:14.106Z,16.17
2023-04-08T05:29:42.577Z,18.55
2023-04-08T05:32:11.315Z,17.45
2023-04-08T05:34:39.556Z,17.85
2023-04-08T05:37:09.603Z,17.48
2023-04-08T05:39:37.834Z,18.13
2023-04-08T05:42:06.370Z,16.02
2023-04-08T05:44:34.686Z,14.82
2023-04-08T05:47:03.415Z,15.57
2023-04-08T05:49:31.573Z,16.80
2023-04-08T05:52:00.066Z,16.27
2023-04-08T05:54:29.775Z,15.85
2023-04-08T05:56:58.305Z,18.02
2023-04-08T05:59:26.502Z,16.15
2023-04-08T06:01:57.196Z,17.85
2023-04-08T06:04:25.855Z,16.23
2023-04-08T06:06:54.489Z,15.93
2023-04-08T06:09:22.721Z,15.65
2023-04-08T06:11:52.647Z,15.68
2023-04-08T06:14:21.610Z,14.68
2023-04-08T06:16:50.084Z,16.33
2023-04-08T06:19:18.442Z,14.40
2023-04-08T06:21:47.472Z,15.45
2023-04-08T06:24:15.689Z,15.48
2023-04-08T06:26:44.411Z,14.10
2023-04-08T06:29:14.143Z,14.57
2023-04-08T06:31:42.938Z,15.00
2023-04-08T06:34:11.388Z,14.73
2023-04-08T06:36:40.008Z,15.32
2023-04-08T06:39:08.486Z,13.98
2023-04-08T06:41:36.906Z,14.48
2023-04-08T06:44:05.382Z,16.40
2023-04-08T06:46:35.424Z,16.17
2023-04-08T06:49:04.676Z,17.05
2023-04-08T06:54:01.525Z,14.27
2023-04-08T06:56:30.170Z,11.48
2023-04-08T06:58:58.483Z,13.02
2023-04-08T07:01:26.994Z,11.68
2023-04-08T07:03:56.942Z,12.55
2023-04-08T07:06:25.614Z,13.85
2023-04-08T07:08:56.360Z,12.90
2023-04-08T07:11:25.045Z,12.85
2023-04-08T07:13:53.275Z,11.05
2023-04-08T07:16:21.822Z,14.52
2023-04-08T07:18:50.313Z,13.63
2023-04-08T07:21:20.523Z,11.27
2023-04-08T07:23:48.994Z,12.85
2023-04-08T07:26:17.681Z,11.15
2023-04-08T07:28:45.988Z,10.88
2023-04-08T07:31:18.199Z,11.00
2023-04-08T07:33:46.958Z,12.30
2023-04-08T07:36:18.433Z,11.60
2023-04-08T07:38:48.511Z,10.90
2023-04-08T07:41:17.416Z,12.33
2023-04-08T07:43:46.173Z,13.07
2023-04-08T07:46:15.064Z,13.95
2023-04-08T07:48:43.277Z,12.20
2023-04-08T07:51:11.944Z,11.70
2023-04-08T07:53:40.832Z,10.82
2023-04-08T07:56:14.955Z,12.15
2023-04-08T07:58:43.647Z,10.38
2023-04-08T08:01:20.169Z,12.07
2023-04-08T08:03:49.041Z,10.18
2023-04-08T08:06:17.935Z,11.30
2023-04-08T08:08:46.369Z,12.20
2023-04-08T08:11:16.354Z,11.88
2023-04-08T08:13:44.552Z,10.05
2023-04-08T08:16:13.189Z,9.30
2023-04-08T08:18:42.106Z,9.90
2023-04-08T08:21:10.918Z,9.73
2023-04-08T08:23:39.384Z,12.00
2023-04-08T08:26:10.190Z,9.32
2023-04-08T08:28:40.405Z,8.48
2023-04-08T08:31:09.037Z,10.07
2023-04-08T08:33:37.395Z,11.10
2023-04-08T08:36:07.158Z,12.40
2023-04-08T08:38:35.524Z,11.65
2023-04-08T08:41:04.855Z,10.32
2023-04-08T08:43:34.736Z,9.48
2023-04-08T08:46:04.700Z,10.20
2023-04-08T08:48:34.230Z,11.27
2023-04-08T08:51:02.844Z,9.93
2023-04-08T08:53:35.067Z,11.50
2023-04-08T08:56:17.994Z,11.98
2023-04-08T08:58:47.867Z,9.98
2023-04-08T09:01:38.261Z,10.27
2023-04-08T09:04:12.311Z,10.95
2023-04-08T09:06:41.466Z,9.88
2023-04-08T09:09:12.986Z,10.43
2023-04-08T09:11:43.128Z,10.75
2023-04-08T09:14:21.630Z,10.10
2023-04-08T09:16:52.157Z,9.38
2023-04-08T09:19:20.835Z,10.30
2023-04-08T09:22:06.604Z,11.00
2023-04-08T09:24:35.320Z,10.18
2023-04-08T09:27:04.353Z,12.85
2023-04-08T09:29:35.256Z,9.98
2023-04-08T09:32:07.842Z,8.48
2023-04-08T09:34:36.838Z,10.45
2023-04-08T09:37:05.403Z,9.48
2023-04-08T09:39:33.782Z,8.60
2023-04-08T09:42:03.586Z,9.10
2023-04-08T09:44:32.921Z,9.02
2023-04-08T09:47:06.440Z,19.95
2023-04-08T09:49:39.918Z,8.48
2023-04-08T09:52:09.724Z,8.40
2023-04-08T09:54:44.020Z,32.47
2023-04-08T09:57:19.065Z,14.18
2023-04-08T09:59:51.351Z,7.45
2023-04-08T10:02:26.140Z,11.23
2023-04-08T10:04:56.507Z,12.30
2023-04-08T10:07:25.124Z,11.32
2023-04-08T10:09:53.655Z,8.63
2023-04-08T10:12:22.366Z,9.30
2023-04-08T10:15:24.559Z,8.32
2023-04-08T10:17:53.501Z,10.18
2023-04-08T10:20:46.003Z,12.20
2023-04-08T10:23:15.475Z,10.65
2023-04-08T10:25:45.201Z,8.48
2023-04-08T10:28:27.379Z,8.85
2023-04-08T10:30:57.490Z,7.80
2023-04-08T10:33:34.764Z,9.90
2023-04-08T10:36:12.224Z,9.63
2023-04-08T10:38:42.448Z,8.63
2023-04-08T10:41:12.008Z,7.80
2023-04-08T10:43:40.753Z,9.07
2023-04-08T10:46:11.713Z,9.30
2023-04-08T10:48:40.516Z,9.63
2023-04-08T10:51:10.188Z,6.93
2023-04-08T10:53:40.433Z,6.22
2023-04-08T10:56:11.057Z,6.43
2023-04-08T10:58:49.191Z,7.13
2023-04-08T11:01:17.732Z,6.43
2023-04-08T11:03:46.401Z,7.47
2023-04-08T11:06:16.513Z,7.40
2023-04-08T11:08:45.454Z,9.48
2023-04-08T11:11:13.624Z,8.02
2023-04-08T11:13:52.054Z,12.60
2023-04-08T11:16:21.367Z,13.05
2023-04-08T11:18:50.405Z,12.10
2023-04-08T11:21:20.350Z,12.38
2023-04-08T11:23:51.975Z,11.73
2023-04-08T11:28:52.048Z,14.43
2023-04-08T11:31:22.738Z,15.15
2023-04-08T11:33:54.979Z,13.60
2023-04-08T11:36:24.518Z,12.50
2023-04-08T11:38:55.469Z,11.20
2023-04-08T11:41:23.928Z,10.25
2023-04-08T11:43:56.519Z,10.98
2023-04-08T11:46:25.585Z,14.15
2023-04-08T11:49:04.840Z,11.52
2023-04-08T11:51:35.617Z,12.43
2023-04-08T11:54:06.660Z,14.07
2023-04-08T11:56:46.988Z,12.30
2023-04-08T11:59:15.653Z,13.47
2023-04-08T12:01:43.871Z,11.00
2023-04-08T12:04:12.661Z,12.65
2023-04-08T12:06:43.714Z,15.13
2023-04-08T12:09:12.899Z,13.73
2023-04-08T12:11:41.331Z,11.48
2023-04-08T12:14:09.862Z,11.88
2023-04-08T12:16:38.150Z,15.05
2023-04-08T12:19:07.252Z,14.68
2023-04-08T12:21:35.420Z,18.20
2023-04-08T12:24:05.428Z,14.52
2023-04-08T12:26:34.813Z,19.17
2023-04-08T12:29:03.300Z,12.75
2023-04-08T12:31:32.098Z,11.45
2023-04-08T12:34:00.654Z,14.00
2023-04-08T12:36:28.968Z,13.35
2023-04-08T12:38:57.691Z,13.48
2023-04-08T12:41:27.336Z,13.88
2023-04-08T12:43:55.959Z,12.73
2023-04-08T12:46:24.147Z,11.65
2023-04-08T12:49:03.465Z,15.07
2023-04-08T12:51:32.673Z,12.95
2023-04-08T12:54:02.095Z,14.02
2023-04-08T12:56:31.700Z,16.92
2023-04-08T12:59:01.192Z,16.63
2023-04-08T13:01:31.148Z,18.30
2023-04-08T13:04:00.241Z,13.57
2023-04-08T13:06:28.804Z,12.30
2023-04-08T13:08:57.453Z,17.40
2023-04-08T13:11:25.986Z,13.18
2023-04-08T13:13:56.038Z,15.35
2023-04-08T13:16:24.747Z,14.85
2023-04-08T13:18:53.644Z,15.85
2023-04-08T13:21:21.942Z,14.68
2023-04-08T13:23:50.345Z,19.67
2023-04-08T13:26:18.591Z,15.63
2023-04-08T13:28:56.612Z,15.88
2023-04-08T13:31:27.735Z,14.75
2023-04-08T13:33:58.188Z,14.75
2023-04-08T13:36:28.880Z,19.30
2023-04-08T13:38:57.849Z,30.15
2023-04-08T13:41:28.295Z,24.45
2023-04-08T13:43:57.584Z,20.45
2023-04-08T13:46:28.668Z,20.00
2023-04-08T13:48:57.656Z,17.30
2023-04-08T13:51:27.895Z,14.18
2023-04-08T13:53:57.223Z,15.50
2023-04-08T13:56:25.637Z,13.82
2023-04-08T13:58:57.357Z,13.40
2023-04-08T14:01:27.514Z,14.63
2023-04-08T14:03:56.486Z,12.82
2023-04-08T14:06:24.766Z,13.32
2023-04-08T14:08:53.421Z,15.35
2023-04-08T14:11:22.467Z,16.20
2023-04-08T14:13:50.951Z,14.57
2023-04-08T14:16:19.827Z,19.00
2023-04-08T14:18:50.045Z,14.77
2023-04-08T14:21:18.877Z,15.65
2023-04-08T14:23:48.264Z,16.67
2023-04-08T14:26:16.720Z,16.92
2023-04-08T14:28:45.216Z,17.20
2023-04-08T14:31:13.781Z,18.27
2023-04-08T14:33:42.420Z,22.25
2023-04-08T14:36:14.222Z,19.75
2023-04-08T14:38:42.810Z,20.17
2023-04-08T14:41:11.063Z,19.27
2023-04-08T14:43:39.592Z,20.45
2023-04-08T14:46:08.013Z,17.77
2023-04-08T14:48:36.639Z,16.42
2023-04-08T14:51:05.208Z,17.85
2023-04-08T14:53:35.576Z,18.30
2023-04-08T14:56:04.241Z,17.70
2023-04-08T14:58:33.148Z,18.10
2023-04-08T15:01:01.558Z,18.17
2023-04-08T15:03:30.562Z,18.65
2023-04-08T15:05:59.779Z,20.80
2023-04-08T15:08:28.445Z,17.17
2023-04-08T15:10:59.669Z,20.42
2023-04-08T15:13:28.294Z,19.45
2023-04-08T15:15:56.829Z,20.05
2023-04-08T15:18:25.568Z,23.83
2023-04-08T15:20:53.843Z,28.05
2023-04-08T15:23:23.382Z,21.30
2023-04-08T15:25:51.986Z,23.02
2023-04-08T15:28:21.975Z,22.25
2023-04-08T15:30:50.574Z,22.70
2023-04-08T15:33:19.359Z,21.42
2023-04-08T15:35:48.650Z,26.75
2023-04-08T15:38:17.619Z,26.23
2023-04-08T15:40:47.970Z,24.33
2023-04-08T15:43:16.876Z,25.95
2023-04-08T15:45:46.817Z,21.17
2023-04-08T15:48:15.512Z,23.15
2023-04-08T15:50:43.766Z,24.73
2023-04-08T15:53:12.339Z,24.35
2023-04-08T15:55:41.060Z,23.58
2023-04-08T15:58:09.804Z,21.88
2023-04-08T16:00:38.028Z,23.98
2023-04-08T16:03:11.977Z,32.45
2023-04-08T16:05:41.752Z,21.45
2023-04-08T16:08:10.401Z,24.77
2023-04-08T16:10:38.572Z,26.90
2023-04-08T16:13:07.729Z,26.60
2023-04-08T16:15:36.363Z,25.92
2023-04-08T16:18:06.476Z,28.80
2023-04-08T16:20:38.440Z,23.83
2023-04-08T16:23:06.983Z,23.75
2023-04-08T16:25:35.105Z,25.30
2023-04-08T16:28:03.905Z,26.05
2023-04-08T16:30:32.284Z,23.55
2023-04-08T16:33:01.052Z,23.15
2023-04-08T16:35:29.333Z,26.23
2023-04-08T16:37:59.707Z,27.58
2023-04-08T16:40:27.990Z,25.60
2023-04-08T16:42:56.945Z,26.27
2023-04-08T16:45:25.419Z,25.15
2023-04-08T16:47:54.225Z,30.02
2023-04-08T16:50:22.591Z,27.42
2023-04-08T16:52:51.190Z,33.75
2023-04-08T16:55:21.040Z,31.83
2023-04-08T16:57:49.773Z,29.25
2023-04-08T17:00:21.040Z,33.00
2023-04-08T17:02:50.353Z,30.00
2023-04-08T17:05:18.958Z,30.90
2023-04-08T17:07:47.587Z,25.52
2023-04-08T17:10:15.988Z,24.40
2023-04-08T17:12:46.186Z,24.92
2023-04-08T17:15:14.416Z,25.38
2023-04-08T17:17:43.126Z,24.88
2023-04-08T17:20:12.424Z,28.10
2023-04-08T17:22:41.126Z,33.08
2023-04-08T17:25:10.045Z,28.92
2023-04-08T17:27:38.575Z,22.92
2023-04-08T17:30:11.318Z,26.85
2023-04-08T17:32:40.289Z,28.77
2023-04-08T17:35:09.361Z,23.13
2023-04-08T17:37:38.017Z,26.95
2023-04-08T17:40:07.679Z,23.80
2023-04-08T17:42:36.436Z,24.88
2023-04-08T17:45:05.681Z,26.85
2023-04-08T17:47:35.723Z,25.92
2023-04-08T17:50:03.970Z,26.83
2023-04-08T17:52:32.536Z,27.63
2023-04-08T17:55:00.952Z,25.40
2023-04-08T17:57:29.704Z,25.20
2023-04-08T17:59:57.980Z,30.88
2023-04-08T18:02:27.682Z,27.73
2023-04-08T18:04:58.651Z,25.40
2023-04-08T18:07:27.509Z,23.55
2023-04-08T18:09:56.627Z,24.63
2023-04-08T18:12:26.316Z,25.52
2023-04-08T18:14:54.641Z,23.42
2023-04-08T18:17:23.209Z,25.15
2023-04-08T18:19:51.451Z,24.02
2023-04-08T18:22:22.609Z,25.17
2023-04-08T18:24:51.072Z,24.00
2023-04-08T18:27:19.660Z,25.38
2023-04-08T18:29:48.152Z,25.23
2023-04-08T18:32:16.804Z,28.10
2023-04-08T18:34:45.035Z,30.58
2023-04-08T18:37:17.036Z,32.00
2023-04-08T18:42:15.071Z,26.23
2023-04-08T18:44:43.358Z,27.27
2023-04-08T18:47:12.146Z,27.30
2023-04-08T18:49:40.320Z,25.65
2023-04-08T18:52:09.437Z,27.13
2023-04-08T18:54:37.681Z,31.88
2023-04-08T18:57:08.043Z,31.33
2023-04-08T18:59:37.218Z,33.05
2023-04-08T19:02:05.943Z,31.02
2023-04-08T19:04:34.318Z,28.98
2023-04-08T19:07:03.104Z,31.42
2023-04-08T19:09:31.993Z,32.08
2023-04-08T19:12:00.686Z,32.97
2023-04-08T19:14:30.390Z,33.70
2023-04-08T19:16:58.851Z,31.85
2023-04-08T19:19:27.075Z,30.13
2023-04-08T19:21:55.571Z,27.75
2023-04-08T19:24:23.852Z,27.83
2023-04-08T19:26:53.202Z,29.92
2023-04-08T19:29:23.424Z,28.67
2023-04-08T19:31:53.440Z,30.10
2023-04-08T19:34:21.583Z,27.17
2023-04-08T19:36:50.050Z,29.15
2023-04-08T19:39:18.591Z,32.63
2023-04-08T19:41:47.168Z,29.15
2023-04-08T19:44:15.730Z,35.63
2023-04-08T19:46:44.542Z,30.42
2023-04-08T19:49:14.143Z,32.63
2023-04-08T19:51:42.641Z,30.42
2023-04-08T19:54:10.827Z,30.20
2023-04-08T19:56:39.608Z,28.58
2023-04-08T19:59:07.887Z,28.35
2023-04-08T20:01:36.527Z,27.92
2023-04-08T20:04:05.013Z,28.55
2023-04-08T20:06:35.431Z,28.02
2023-04-08T20:09:05.759Z,28.73
2023-04-08T20:11:34.572Z,30.70
2023-04-08T20:14:03.516Z,34.58
2023-04-08T20:16:32.134Z,34.83
2023-04-08T20:19:00.455Z,30.45
2023-04-08T20:21:28.987Z,32.25
2023-04-08T20:23:58.615Z,31.23
2023-04-08T20:26:27.199Z,28.42
2023-04-08T20:28:58.491Z,30.05
2023-04-08T20:31:28.114Z,30.60
2023-04-08T20:33:56.513Z,35.53
2023-04-08T20:36:25.946Z,30.55
2023-04-08T20:38:55.034Z,28.25
2023-04-08T20:41:26.057Z,30.27
2023-04-08T20:43:55.177Z,28.67
2023-04-08T20:46:24.610Z,30.60
2023-04-08T20:48:53.179Z,34.15
2023-04-08T20:51:22.170Z,35.22
2023-04-08T20:53:50.779Z,35.08
2023-04-08T20:56:19.270Z,34.50
2023-04-08T20:58:48.796Z,37.05
2023-04-08T21:01:17.310Z,34.28
2023-04-08T21:03:45.731Z,34.40
2023-04-08T21:06:18.153Z,39.28
2023-04-08T21:08:46.857Z,33.50
2023-04-08T21:11:15.750Z,36.80
2023-04-08T21:13:45.949Z,33.47
2023-04-08T21:16:17.428Z,33.83
2023-04-08T21:18:45.675Z,33.35
2023-04-08T21:21:14.260Z,32.05
2023-04-08T21:23:42.449Z,28.05
2023-04-08T21:26:14.671Z,29.55
2023-04-08T21:28:44.078Z,32.38
2023-04-08T21:31:13.244Z,29.98
2023-04-08T21:33:42.759Z,27.40
2023-04-08T21:36:11.334Z,29.00
2023-04-08T21:38:39.592Z,32.05
2023-04-08T21:41:08.112Z,36.28
2023-04-08T21:43:36.365Z,30.45
2023-04-08T21:46:05.172Z,33.15
2023-04-08T21:48:33.403Z,33.60
2023-04-08T21:51:03.371Z,33.53
2023-04-08T21:53:31.615Z,30.13
2023-04-08T21:56:00.156Z,31.63
2023-04-08T21:58:29.085Z,33.72
2023-04-08T22:00:57.687Z,36.22
2023-04-08T22:03:26.670Z,35.10
2023-04-08T22:05:55.377Z,36.72
2023-04-08T22:08:25.059Z,35.33
2023-04-08T22:10:54.189Z,37.60
2023-04-08T22:13:22.393Z,37.78
2023-04-08T22:15:51.056Z,35.65
2023-04-08T22:18:19.271Z,34.83
2023-04-08T22:20:48.026Z,34.67
2023-04-08T22:23:16.238Z,34.10
2023-04-08T22:25:49.498Z,30.92
2023-04-08T22:28:17.810Z,30.92
2023-04-08T22:30:46.418Z,30.05
2023-04-08T22:33:14.641Z,28.95
2023-04-08T22:35:43.520Z,27.98
2023-04-08T22:38:11.911Z,28.08
2023-04-08T22:40:40.446Z,28.45
2023-04-08T22:43:10.098Z,25.13
2023-04-08T22:45:38.869Z,24.83
2023-04-08T22:48:07.568Z,27.50
2023-04-08T22:50:36.240Z,27.02
2023-04-08T22:53:04.704Z,27.23
2023-04-08T22:55:33.447Z,27.25
2023-04-08T22:58:01.745Z,23.88
2023-04-08T23:00:31.931Z,24.95
2023-04-08T23:03:04.631Z,23.65
2023-04-08T23:05:33.300Z,23.77
2023-04-08T23:08:01.588Z,24.20
2023-04-08T23:10:30.096Z,22.17
2023-04-08T23:12:58.416Z,23.35
2023-04-08T23:15:27.015Z,22.10
2023-04-08T23:17:56.734Z,23.10
2023-04-08T23:20:25.146Z,23.10
2023-04-08T23:22:53.514Z,23.08
2023-04-08T23:25:21.947Z,22.92
2023-04-08T23:27:50.197Z,21.25
2023-04-08T23:30:18.767Z,20.73
2023-04-08T23:32:47.120Z,20.55
2023-04-08T23:35:17.377Z,20.65
2023-04-08T23:37:45.767Z,21.25
2023-04-08T23:40:14.281Z,18.95
2023-04-08T23:42:42.542Z,19.65
2023-04-08T23:45:11.849Z,20.73
2023-04-08T23:47:40.155Z,20.30
2023-04-08T23:50:10.136Z,19.63
2023-04-08T23:52:39.657Z,19.40
2023-04-08T23:55:08.612Z,19.65
2023-04-08T23:57:37.033Z,17.60
